createdAt,value
2022-10-12T00:02:10.736Z,7.22
2022-10-12T00:04:37.146Z,8.88
2022-10-12T00:07:03.551Z,7.90
2022-10-12T00:09:29.915Z,7.07
2022-10-12T00:11:56.290Z,9.20
2022-10-12T00:14:22.662Z,6.53
2022-10-12T00:16:49.078Z,7.10
2022-10-12T00:19:15.575Z,8.07
2022-10-12T00:21:42.169Z,9.07
2022-10-12T00:24:09.160Z,8.32
2022-10-12T00:26:35.638Z,11.23
2022-10-12T00:29:04.063Z,6.40
2022-10-12T00:31:31.206Z,14.02
2022-10-12T00:34:01.270Z,7.55
2022-10-12T00:36:32.266Z,10.80
2022-10-12T00:38:59.868Z,11.90
2022-10-12T00:41:29.264Z,10.35
2022-10-12T00:43:58.463Z,10.98
2022-10-12T00:46:39.240Z,10.18
2022-10-12T00:49:17.545Z,5.15
2022-10-12T00:51:48.661Z,14.52
2022-10-12T00:54:23.606Z,12.00
2022-10-12T00:56:53.280Z,8.40
2022-10-12T00:59:24.159Z,6.93
2022-10-12T01:01:50.928Z,6.82
2022-10-12T01:04:17.601Z,6.18
2022-10-12T01:06:44.151Z,7.45
2022-10-12T01:09:10.520Z,4.78
2022-10-12T01:11:36.897Z,9.15
2022-10-12T01:14:03.562Z,6.30
2022-10-12T01:16:46.563Z,8.43
2022-10-12T01:19:46.506Z,8.75
2022-10-12T01:22:19.220Z,9.27
2022-10-12T01:25:16.226Z,10.73
2022-10-12T01:27:49.961Z,8.80
2022-10-12T01:30:25.702Z,10.65
2022-10-12T01:33:05.730Z,13.27
2022-10-12T01:35:44.011Z,5.07
2022-10-12T01:38:34.995Z,5.85
2022-10-12T01:41:10.625Z,8.70
2022-10-12T01:43:40.064Z,7.53
2022-10-12T01:46:12.530Z,6.97
2022-10-12T01:48:40.401Z,8.02
2022-10-12T01:51:09.086Z,8.85
2022-10-12T01:54:01.333Z,14.73
2022-10-12T01:56:34.937Z,7.82
2022-10-12T01:59:14.380Z,7.47
2022-10-12T02:01:50.073Z,6.93
2022-10-12T02:04:51.857Z,8.02
2022-10-12T02:07:38.036Z,7.88
2022-10-12T02:10:10.641Z,9.23
2022-10-12T02:12:40.261Z,5.63
2022-10-12T02:15:10.082Z,10.27
2022-10-12T02:17:38.480Z,9.60
2022-10-12T02:20:06.148Z,8.13
2022-10-12T02:22:36.683Z,9.07
2022-10-12T02:25:08.918Z,16.35
2022-10-12T02:27:37.125Z,6.15
2022-10-12T02:30:04.533Z,6.53
2022-10-12T02:32:50.613Z,9.23
2022-10-12T02:35:31.305Z,10.00
2022-10-12T02:38:11.734Z,6.20
2022-10-12T02:40:54.666Z,14.20
2022-10-12T02:43:38.845Z,13.25
2022-10-12T02:46:08.894Z,19.08
2022-10-12T02:48:38.802Z,26.85
2022-10-12T02:51:07.107Z,28.13
2022-10-12T02:53:33.843Z,16.75
2022-10-12T02:56:06.190Z,20.05
2022-10-12T02:58:32.709Z,27.17
2022-10-12T03:00:59.171Z,22.65
2022-10-12T03:03:25.610Z,49.33
2022-10-12T03:05:52.063Z,45.70
2022-10-12T03:08:18.450Z,55.30
2022-10-12T03:10:44.873Z,34.88
2022-10-12T03:13:11.367Z,29.38
2022-10-12T03:15:37.962Z,31.42
2022-10-12T03:18:04.518Z,26.80
2022-10-12T03:20:30.877Z,25.40
2022-10-12T03:22:57.248Z,43.75
2022-10-12T03:25:23.865Z,42.00
2022-10-12T03:27:50.286Z,54.58
2022-10-12T03:30:16.774Z,34.10
2022-10-12T03:32:43.365Z,22.63
2022-10-12T03:35:10.012Z,26.80
2022-10-12T03:37:36.778Z,29.15
2022-10-12T03:40:03.518Z,16.38
2022-10-12T03:42:29.899Z,12.48
2022-10-12T03:44:56.300Z,22.33
2022-10-12T03:47:22.684Z,16.52
2022-10-12T03:49:49.038Z,20.85
2022-10-12T03:52:15.576Z,22.02
2022-10-12T03:54:41.942Z,27.25
2022-10-12T03:57:08.316Z,20.83
2022-10-12T03:59:34.678Z,32.03
2022-10-12T04:02:01.065Z,14.43
2022-10-12T04:04:27.497Z,13.20
2022-10-12T04:06:53.873Z,13.88
2022-10-12T04:09:20.260Z,12.45
2022-10-12T04:11:46.626Z,8.68
2022-10-12T04:14:12.985Z,6.07
2022-10-12T04:16:39.439Z,11.68
2022-10-12T04:19:05.889Z,13.05
2022-10-12T04:21:32.360Z,8.70
2022-10-12T04:23:58.740Z,9.50
2022-10-12T04:26:25.134Z,9.88
2022-10-12T04:28:51.575Z,7.25
2022-10-12T04:31:18.321Z,8.07
2022-10-12T04:33:44.752Z,8.77
2022-10-12T04:36:11.133Z,7.03
2022-10-12T04:38:37.648Z,11.85
2022-10-12T04:41:04.332Z,15.13
2022-10-12T04:43:30.843Z,15.43
2022-10-12T04:45:58.889Z,16.13
2022-10-12T04:48:26.193Z,10.05
2022-10-12T04:50:53.020Z,13.73
2022-10-12T04:53:19.600Z,14.68
2022-10-12T04:55:46.055Z,11.57
2022-10-12T04:58:12.463Z,12.57
2022-10-12T05:00:38.882Z,10.35
2022-10-12T05:03:05.724Z,9.88
2022-10-12T05:05:32.198Z,12.93
2022-10-12T05:07:58.652Z,12.35
2022-10-12T05:10:25.054Z,8.40
2022-10-12T05:12:51.556Z,7.90
2022-10-12T05:15:18.095Z,8.85
2022-10-12T05:17:44.457Z,11.52
2022-10-12T05:20:11.677Z,17.25
2022-10-12T05:22:38.138Z,18.77
2022-10-12T05:25:05.946Z,18.95
2022-10-12T05:27:32.351Z,20.30
2022-10-12T05:29:58.779Z,23.38
2022-10-12T05:32:25.195Z,15.60
2022-10-12T05:34:51.651Z,11.73
2022-10-12T05:37:18.044Z,19.80
2022-10-12T05:39:44.414Z,24.10
2022-10-12T05:42:10.778Z,16.40
2022-10-12T05:44:37.197Z,35.83
2022-10-12T05:47:03.732Z,30.90
2022-10-12T05:49:30.933Z,22.77
2022-10-12T05:51:57.326Z,12.90
2022-10-12T05:54:23.712Z,13.45
2022-10-12T05:56:50.140Z,11.07
2022-10-12T05:59:16.530Z,12.68
2022-10-12T06:01:43.000Z,21.08
2022-10-12T06:04:09.484Z,22.40
2022-10-12T06:06:35.851Z,15.63
2022-10-12T06:09:02.393Z,11.80
2022-10-12T06:11:30.423Z,14.55
2022-10-12T06:13:59.135Z,26.10
2022-10-12T06:16:25.563Z,13.98
2022-10-12T06:18:51.994Z,5.40
2022-10-12T06:21:32.911Z,3.78
2022-10-12T06:26:26.013Z,6.80
2022-10-12T06:28:52.468Z,10.35
2022-10-12T06:31:18.991Z,4.63
2022-10-12T06:33:45.393Z,6.68
2022-10-12T06:36:11.805Z,4.70
2022-10-12T06:38:38.182Z,6.95
2022-10-12T06:41:04.787Z,4.18
2022-10-12T06:43:31.204Z,8.55
2022-10-12T06:46:01.780Z,8.60
2022-10-12T06:48:29.028Z,5.78
2022-10-12T06:50:55.703Z,12.27
2022-10-12T06:53:22.496Z,7.68
2022-10-12T06:55:49.305Z,8.90
2022-10-12T06:58:15.733Z,6.45
2022-10-12T07:00:42.270Z,6.30
2022-10-12T07:03:12.705Z,12.85
2022-10-12T07:05:39.221Z,6.20
2022-10-12T07:08:05.642Z,13.85
2022-10-12T07:10:32.026Z,5.85
2022-10-12T07:12:58.824Z,6.00
2022-10-12T07:15:25.298Z,6.95
2022-10-12T07:17:51.688Z,6.93
2022-10-12T07:20:18.042Z,16.05
2022-10-12T07:22:44.760Z,14.48
2022-10-12T07:25:11.346Z,10.27
2022-10-12T07:27:38.025Z,7.22
2022-10-12T07:30:05.136Z,3.40
2022-10-12T07:32:31.502Z,5.60
2022-10-12T07:34:57.900Z,6.22
2022-10-12T07:37:24.349Z,6.30
2022-10-12T07:39:50.805Z,15.77
2022-10-12T07:42:19.527Z,32.78
2022-10-12T07:44:46.279Z,19.27
2022-10-12T07:47:12.631Z,11.82
2022-10-12T07:49:39.014Z,7.20
2022-10-12T07:52:05.368Z,5.28
2022-10-12T07:54:32.716Z,6.93
2022-10-12T07:56:59.155Z,12.23
2022-10-12T07:59:25.606Z,7.43
2022-10-12T08:01:52.039Z,5.60
2022-10-12T08:04:18.475Z,10.70
2022-10-12T08:06:44.964Z,13.23
2022-10-12T08:09:11.351Z,12.80
2022-10-12T08:11:40.028Z,7.75
2022-10-12T08:14:07.502Z,5.80
2022-10-12T08:16:33.936Z,7.47
2022-10-12T08:19:00.421Z,6.55
2022-10-12T08:21:26.834Z,8.25
2022-10-12T08:23:53.266Z,12.73
2022-10-12T08:26:19.640Z,7.65
2022-10-12T08:28:46.362Z,9.68
2022-10-12T08:31:17.590Z,7.72
2022-10-12T08:33:44.318Z,8.00
2022-10-12T08:36:11.178Z,10.35
2022-10-12T08:38:43.204Z,9.77
2022-10-12T08:41:26.178Z,9.88
2022-10-12T08:44:04.480Z,10.30
2022-10-12T08:46:31.180Z,10.15
2022-10-12T08:49:12.444Z,9.43
2022-10-12T08:51:49.156Z,8.95
2022-10-12T08:54:18.982Z,8.52
2022-10-12T08:56:45.531Z,9.13
2022-10-12T08:59:17.544Z,12.15
2022-10-12T09:02:14.656Z,8.75
2022-10-12T09:05:01.406Z,7.72
2022-10-12T09:07:47.830Z,10.27
2022-10-12T09:10:26.584Z,7.80
2022-10-12T09:13:14.057Z,11.05
2022-10-12T09:16:06.228Z,15.88
2022-10-12T09:18:46.214Z,15.30
2022-10-12T09:21:21.534Z,16.13
2022-10-12T09:23:49.438Z,15.48
2022-10-12T09:26:18.914Z,16.20
2022-10-12T09:28:54.944Z,18.15
2022-10-12T09:31:33.411Z,13.23
2022-10-12T09:34:03.057Z,12.20
2022-10-12T09:36:34.297Z,16.80
2022-10-12T09:41:42.006Z,14.75
2022-10-12T09:44:16.468Z,15.75
2022-10-12T09:46:49.369Z,19.83
2022-10-12T09:49:15.818Z,10.70
2022-10-12T09:51:42.333Z,18.33
2022-10-12T09:54:18.127Z,22.25
2022-10-12T09:56:51.135Z,16.55
2022-10-12T09:59:25.025Z,20.75
2022-10-12T10:02:04.409Z,17.48
2022-10-12T10:04:31.417Z,13.20
2022-10-12T10:07:20.554Z,16.90
2022-10-12T10:09:48.870Z,18.77
2022-10-12T10:12:50.462Z,14.65
2022-10-12T10:17:53.666Z,18.60
2022-10-12T10:20:28.763Z,12.35
2022-10-12T10:22:56.003Z,11.55
2022-10-12T10:25:24.329Z,11.88
2022-10-12T10:28:10.864Z,12.85
2022-10-12T10:30:40.768Z,13.43
2022-10-12T10:33:17.400Z,13.82
2022-10-12T10:36:22.178Z,13.98
2022-10-12T10:39:07.148Z,13.60
2022-10-12T10:41:39.570Z,11.10
2022-10-12T10:44:26.229Z,17.00
2022-10-12T10:46:55.200Z,13.10
2022-10-12T10:49:33.618Z,15.52
2022-10-12T10:52:02.093Z,13.63
2022-10-12T10:54:31.131Z,13.15
2022-10-12T10:57:25.259Z,10.75
2022-10-12T11:00:02.258Z,14.98
2022-10-12T11:02:58.426Z,16.38
2022-10-12T11:05:37.494Z,14.15
2022-10-12T11:08:16.474Z,16.90
2022-10-12T11:10:51.301Z,15.50
2022-10-12T11:13:23.267Z,19.52
2022-10-12T11:16:05.093Z,21.15
2022-10-12T11:18:47.013Z,17.08
2022-10-12T11:21:26.551Z,15.27
2022-10-12T11:24:02.233Z,20.70
2022-10-12T11:26:38.363Z,13.45
2022-10-12T11:29:06.066Z,14.02
2022-10-12T11:31:42.872Z,14.77
2022-10-12T11:34:16.882Z,11.93
2022-10-12T11:37:07.565Z,13.40
2022-10-12T11:39:43.213Z,14.45
2022-10-12T11:42:22.957Z,13.70
2022-10-12T11:44:50.011Z,10.35
2022-10-12T11:47:43.969Z,13.60
2022-10-12T11:50:33.039Z,12.15
2022-10-12T11:53:02.222Z,13.07
2022-10-12T11:55:47.293Z,13.40
2022-10-12T11:58:42.355Z,12.02
2022-10-12T12:01:37.416Z,13.55
2022-10-12T12:04:39.771Z,14.47
2022-10-12T12:07:03.968Z,16.50
2022-10-12T12:12:11.638Z,9.95
2022-10-12T12:14:45.874Z,14.82
2022-10-12T12:17:18.114Z,17.58
2022-10-12T12:19:49.609Z,13.70
2022-10-12T12:22:23.574Z,16.75
2022-10-12T12:24:59.663Z,14.35
2022-10-12T12:27:33.874Z,13.77
2022-10-12T12:30:02.926Z,16.15
2022-10-12T12:32:44.523Z,16.27
2022-10-12T12:35:33.100Z,17.65
2022-10-12T12:38:03.530Z,11.98
2022-10-12T12:40:30.451Z,18.45
2022-10-12T12:43:19.689Z,18.08
2022-10-12T12:46:08.047Z,14.35
2022-10-12T12:48:43.688Z,11.05
2022-10-12T12:51:14.938Z,10.40
2022-10-12T12:56:34.329Z,11.18
2022-10-12T12:59:25.104Z,12.23
2022-10-12T13:02:19.441Z,9.38
2022-10-12T13:05:04.892Z,9.32
2022-10-12T13:08:13.462Z,11.25
2022-10-12T13:11:01.437Z,13.88
2022-10-12T13:14:14.513Z,13.27
2022-10-12T13:17:32.346Z,14.15
2022-10-12T13:19:56.030Z,12.25
2022-10-12T13:22:29.369Z,12.98
2022-10-12T13:25:06.649Z,10.07
2022-10-12T13:27:40.898Z,14.40
2022-10-12T13:30:22.814Z,12.55
2022-10-12T13:33:10.418Z,10.80
2022-10-12T13:35:43.347Z,12.05
2022-10-12T13:38:15.768Z,11.82
2022-10-12T13:40:51.473Z,10.02
2022-10-12T13:43:27.180Z,15.93
2022-10-12T13:45:53.706Z,12.20
2022-10-12T13:48:46.470Z,13.27
2022-10-12T13:51:22.673Z,13.48
2022-10-12T13:53:49.116Z,15.27
2022-10-12T13:56:22.968Z,14.57
2022-10-12T13:58:53.664Z,11.05
2022-10-12T14:01:20.171Z,14.32
2022-10-12T14:03:46.751Z,15.30
2022-10-12T14:06:29.904Z,11.00
2022-10-12T14:09:01.205Z,15.43
2022-10-12T14:11:28.456Z,13.10
2022-10-12T14:13:55.814Z,15.05
2022-10-12T14:16:22.232Z,14.25
2022-10-12T14:18:50.645Z,12.38
2022-10-12T14:21:28.031Z,16.25
2022-10-12T14:23:59.837Z,15.50
2022-10-12T14:26:37.607Z,13.48
2022-10-12T14:29:33.881Z,18.35
2022-10-12T14:32:03.641Z,29.67
2022-10-12T14:34:34.218Z,40.28
2022-10-12T14:37:16.884Z,34.50
2022-10-12T14:39:45.893Z,29.88
2022-10-12T14:42:27.062Z,24.45
2022-10-12T14:44:53.759Z,17.95
2022-10-12T14:47:22.997Z,16.10
2022-10-12T14:49:51.484Z,19.05
2022-10-12T14:52:27.654Z,15.70
2022-10-12T14:57:30.551Z,14.75
2022-10-12T14:59:57.696Z,12.45
2022-10-12T15:02:30.332Z,13.25
2022-10-12T15:04:57.978Z,21.20
2022-10-12T15:07:31.974Z,13.70
2022-10-12T15:09:58.957Z,11.57
2022-10-12T15:12:26.598Z,16.40
2022-10-12T15:14:55.869Z,18.15
2022-10-12T15:17:22.232Z,15.98
2022-10-12T15:19:50.091Z,18.90
2022-10-12T15:22:18.395Z,30.98
2022-10-12T15:24:45.499Z,39.20
2022-10-12T15:27:12.240Z,51.53
2022-10-12T15:29:39.348Z,55.53
2022-10-12T15:32:06.890Z,52.75
2022-10-12T15:34:33.382Z,51.45
2022-10-12T15:36:59.790Z,35.05
2022-10-12T15:39:26.331Z,32.05
2022-10-12T15:41:52.690Z,21.63
2022-10-12T15:44:19.085Z,18.40
2022-10-12T15:46:50.335Z,15.68
2022-10-12T15:51:48.727Z,17.42
2022-10-12T15:54:15.188Z,13.48
2022-10-12T15:56:41.664Z,18.98
2022-10-12T15:59:08.087Z,16.90
2022-10-12T16:01:36.136Z,13.15
2022-10-12T16:04:04.714Z,11.15
2022-10-12T16:06:31.263Z,15.45
2022-10-12T16:08:58.704Z,13.10
2022-10-12T16:11:25.096Z,13.77
2022-10-12T16:13:56.538Z,11.93
2022-10-12T16:16:23.571Z,10.18
2022-10-12T16:18:51.376Z,12.32
2022-10-12T16:21:17.766Z,10.55
2022-10-12T16:23:44.209Z,12.45
2022-10-12T16:26:13.482Z,12.60
2022-10-12T16:28:40.003Z,11.20
2022-10-12T16:31:12.259Z,12.05
2022-10-12T16:33:39.267Z,16.58
2022-10-12T16:36:11.158Z,13.13
2022-10-12T16:38:37.559Z,13.90
2022-10-12T16:41:15.367Z,13.55
2022-10-12T16:43:42.714Z,13.48
2022-10-12T16:46:10.219Z,12.38
2022-10-12T16:48:36.858Z,15.63
2022-10-12T16:51:08.286Z,19.33
2022-10-12T16:53:34.938Z,21.33
2022-10-12T16:56:02.216Z,18.90
2022-10-12T16:58:28.607Z,14.05
2022-10-12T17:00:55.422Z,12.32
2022-10-12T17:03:21.848Z,10.45
2022-10-12T17:05:48.197Z,17.98
2022-10-12T17:08:15.760Z,16.08
2022-10-12T17:10:43.920Z,26.70
2022-10-12T17:13:10.544Z,15.85
2022-10-12T17:15:41.533Z,20.27
2022-10-12T17:18:08.710Z,20.60
2022-10-12T17:20:36.052Z,22.52
2022-10-12T17:23:03.076Z,19.85
2022-10-12T17:25:29.456Z,16.13
2022-10-12T17:27:55.870Z,24.63
2022-10-12T17:30:22.287Z,19.50
2022-10-12T17:32:48.651Z,20.45
2022-10-12T17:35:15.141Z,19.98
2022-10-12T17:37:41.509Z,19.00
2022-10-12T17:40:10.534Z,18.95
2022-10-12T17:42:36.995Z,22.42
2022-10-12T17:45:03.983Z,19.55
2022-10-12T17:47:30.410Z,21.08
2022-10-12T17:49:56.808Z,17.60
2022-10-12T17:52:23.229Z,22.73
2022-10-12T17:54:49.610Z,25.33
2022-10-12T17:57:16.448Z,16.98
2022-10-12T17:59:43.054Z,18.83
2022-10-12T18:02:09.978Z,20.27
2022-10-12T18:04:36.616Z,14.68
2022-10-12T18:07:03.154Z,20.08
2022-10-12T18:09:30.536Z,17.90
2022-10-12T18:11:56.891Z,20.10
2022-10-12T18:14:23.298Z,20.48
2022-10-12T18:16:49.671Z,16.75
2022-10-12T18:19:16.105Z,17.15
2022-10-12T18:21:42.516Z,15.30
2022-10-12T18:24:15.990Z,15.20
2022-10-12T18:26:45.548Z,18.67
2022-10-12T18:29:16.373Z,29.15
2022-10-12T18:31:42.749Z,24.67
2022-10-12T18:34:09.215Z,22.40
2022-10-12T18:36:35.745Z,26.15
2022-10-12T18:39:03.839Z,24.65
2022-10-12T18:41:31.164Z,24.35
2022-10-12T18:43:58.789Z,20.58
2022-10-12T18:46:27.507Z,55.60
2022-10-12T18:48:54.136Z,38.97
2022-10-12T18:51:24.898Z,45.80
2022-10-12T18:53:51.461Z,259.73
2022-10-12T18:56:18.767Z,257.90
2022-10-12T18:58:45.257Z,64.03
2022-10-12T19:01:14.954Z,31.60
2022-10-12T19:03:41.380Z,31.02
2022-10-12T19:06:16.520Z,35.42
2022-10-12T19:08:43.513Z,23.10
2022-10-12T19:11:11.043Z,31.75
2022-10-12T19:13:38.598Z,95.38
2022-10-12T19:16:12.305Z,85.72
2022-10-12T19:18:39.910Z,104.10
2022-10-12T19:21:09.594Z,61.03
2022-10-12T19:23:36.269Z,152.38
2022-10-12T19:26:08.338Z,137.95
2022-10-12T19:28:35.440Z,147.85
2022-10-12T19:31:07.350Z,99.82
2022-10-12T19:33:33.843Z,57.38
2022-10-12T19:36:03.678Z,47.35
2022-10-12T19:38:30.129Z,39.78
2022-10-12T19:40:56.638Z,26.90
2022-10-12T19:43:23.186Z,22.80
2022-10-12T19:45:50.796Z,26.10
2022-10-12T19:48:17.737Z,21.50
2022-10-12T19:50:44.846Z,74.38
2022-10-12T19:53:11.331Z,67.80
2022-10-12T19:55:40.399Z,44.58
2022-10-12T19:58:07.489Z,32.83
2022-10-12T20:00:37.276Z,27.50
2022-10-12T20:03:04.656Z,25.67
2022-10-12T20:05:31.086Z,38.92
2022-10-12T20:07:58.154Z,31.73
2022-10-12T20:10:24.658Z,27.00
2022-10-12T20:12:51.128Z,23.67
2022-10-12T20:15:17.608Z,17.67
2022-10-12T20:17:43.974Z,20.67
2022-10-12T20:20:10.719Z,23.15
2022-10-12T20:22:37.101Z,15.73
2022-10-12T20:25:09.327Z,25.70
2022-10-12T20:27:36.573Z,29.00
2022-10-12T20:30:04.254Z,23.65
2022-10-12T20:32:30.686Z,25.88
2022-10-12T20:34:57.125Z,22.52
2022-10-12T20:37:23.597Z,24.75
2022-10-12T20:39:50.758Z,24.58
2022-10-12T20:42:21.540Z,26.88
2022-10-12T20:44:48.498Z,28.23
2022-10-12T20:47:14.929Z,22.83
2022-10-12T20:49:41.880Z,20.38
2022-10-12T20:52:08.352Z,33.92
2022-10-12T20:54:35.939Z,25.30
2022-10-12T20:57:05.269Z,26.67
2022-10-12T20:59:34.292Z,24.63
2022-10-12T21:02:00.696Z,32.55
2022-10-12T21:04:28.217Z,23.77
2022-10-12T21:06:54.646Z,20.15
2022-10-12T21:09:21.101Z,33.47
2022-10-12T21:11:47.492Z,26.60
2022-10-12T21:14:14.011Z,23.63
2022-10-12T21:16:40.525Z,18.60
2022-10-12T21:19:06.898Z,30.25
2022-10-12T21:21:33.323Z,17.48
2022-10-12T21:24:01.109Z,20.13
2022-10-12T21:26:29.692Z,14.85
2022-10-12T21:28:56.149Z,15.18
2022-10-12T21:31:22.634Z,18.13
2022-10-12T21:33:49.030Z,20.10
2022-10-12T21:36:19.909Z,14.60
2022-10-12T21:38:47.027Z,19.38
2022-10-12T21:41:19.028Z,21.08
2022-10-12T21:43:45.678Z,17.15
2022-10-12T21:46:15.747Z,16.80
2022-10-12T21:48:42.459Z,14.57
2022-10-12T21:51:09.337Z,19.00
2022-10-12T21:53:37.036Z,15.38
2022-10-12T21:56:14.296Z,12.65
2022-10-12T21:58:41.172Z,16.73
2022-10-12T22:01:13.520Z,16.80
2022-10-12T22:03:40.812Z,22.38
2022-10-12T22:06:11.308Z,23.30
2022-10-12T22:08:37.681Z,15.98
2022-10-12T22:13:37.212Z,17.17
2022-10-12T22:16:05.783Z,16.83
2022-10-12T22:18:32.940Z,19.17
2022-10-12T22:21:14.042Z,18.85
2022-10-12T22:23:40.593Z,18.65
2022-10-12T22:26:11.328Z,17.05
2022-10-12T22:28:37.816Z,19.85
2022-10-12T22:31:09.513Z,13.48
2022-10-12T22:33:37.068Z,15.00
2022-10-12T22:36:05.109Z,18.80
2022-10-12T22:38:32.902Z,13.65
2022-10-12T22:41:05.592Z,14.68
2022-10-12T22:43:33.446Z,13.57
2022-10-12T22:46:00.433Z,13.93
2022-10-12T22:48:27.641Z,12.75
2022-10-12T22:50:54.321Z,14.80
2022-10-12T22:53:22.267Z,15.82
2022-10-12T22:55:48.950Z,18.38
2022-10-12T22:58:15.608Z,25.20
2022-10-12T23:00:42.271Z,36.15
2022-10-12T23:03:08.702Z,40.90
2022-10-12T23:05:35.121Z,32.85
2022-10-12T23:08:01.773Z,33.08
2022-10-12T23:10:28.130Z,52.40
2022-10-12T23:12:54.512Z,39.40
2022-10-12T23:15:20.890Z,32.15
2022-10-12T23:17:48.169Z,38.38
2022-10-12T23:20:14.557Z,30.38
2022-10-12T23:22:41.868Z,37.42
2022-10-12T23:25:08.315Z,44.30
2022-10-12T23:27:34.722Z,38.53
2022-10-12T23:30:01.100Z,35.90
2022-10-12T23:32:30.380Z,38.08
2022-10-12T23:34:56.771Z,36.17
2022-10-12T23:37:23.175Z,59.60
2022-10-12T23:39:50.796Z,45.08
2022-10-12T23:42:17.530Z,69.07
2022-10-12T23:44:44.108Z,53.40
2022-10-12T23:47:10.516Z,52.15
2022-10-12T23:49:36.917Z,90.93
2022-10-12T23:52:05.912Z,58.03
2022-10-12T23:54:32.324Z,74.75
2022-10-12T23:56:58.690Z,62.30
2022-10-12T23:59:25.088Z,48.50
